sensor_id;sensor_type;location;lat;lon;timestamp;P1;durP1;ratioP1;P2;durP2;ratioP2
26484;SDS011;18083;50.560;7.262;2022-09-14T00:00:15;10.55;;;6.97;;
26484;SDS011;18083;50.560;7.262;2022-09-14T00:02:42;8.25;;;6.08;;
26484;SDS011;18083;50.560;7.262;2022-09-14T00:05:11;7.65;;;5.92;;
26484;SDS011;18083;50.560;7.262;2022-09-14T00:07:38;10.53;;;6.78;;
26484;SDS011;18083;50.560;7.262;2022-09-14T00:10:06;9.13;;;6.10;;
26484;SDS011;18083;50.560;7.262;2022-09-14T00:12:33;7.30;;;5.90;;
26484;SDS011;18083;50.560;7.262;2022-09-14T00:15:01;6.58;;;5.90;;
26484;SDS011;18083;50.560;7.262;2022-09-14T00:17:28;7.22;;;5.60;;
26484;SDS011;18083;50.560;7.262;2022-09-14T00:19:55;9.95;;;6.10;;
26484;SDS011;18083;50.560;7.262;2022-09-14T00:22:23;8.08;;;5.53;;
26484;SDS011;18083;50.560;7.262;2022-09-14T00:24:50;8.25;;;5.33;;
26484;SDS011;18083;50.560;7.262;2022-09-14T00:27:18;7.20;;;5.70;;
26484;SDS011;18083;50.560;7.262;2022-09-14T00:29:46;6.62;;;5.85;;
26484;SDS011;18083;50.560;7.262;2022-09-14T00:32:14;6.30;;;5.58;;
26484;SDS011;18083;50.560;7.262;2022-09-14T00:34:41;6.25;;;5.65;;
26484;SDS011;18083;50.560;7.262;2022-09-14T00:37:08;6.08;;;5.47;;
26484;SDS011;18083;50.560;7.262;2022-09-14T00:39:37;6.45;;;5.78;;
26484;SDS011;18083;50.560;7.262;2022-09-14T00:42:04;9.28;;;6.30;;
26484;SDS011;18083;50.560;7.262;2022-09-14T00:47:00;6.47;;;5.80;;
26484;SDS011;18083;50.560;7.262;2022-09-14T00:49:30;7.20;;;6.08;;
26484;SDS011;18083;50.560;7.262;2022-09-14T00:51:59;9.50;;;6.95;;
26484;SDS011;18083;50.560;7.262;2022-09-14T00:54:26;7.92;;;6.37;;
26484;SDS011;18083;50.560;7.262;2022-09-14T00:56:54;9.15;;;7.67;;
26484;SDS011;18083;50.560;7.262;2022-09-14T00:59:23;10.55;;;7.28;;
26484;SDS011;18083;50.560;7.262;2022-09-14T01:01:51;10.23;;;8.18;;
26484;SDS011;18083;50.560;7.262;2022-09-14T01:04:19;13.53;;;8.53;;
26484;SDS011;18083;50.560;7.262;2022-09-14T01:17:33;13.58;;;9.58;;
26484;SDS011;18083;50.560;7.262;2022-09-14T01:27:56;15.78;;;10.23;;
26484;SDS011;18083;50.560;7.262;2022-09-14T01:36:01;13.40;;;9.70;;
26484;SDS011;18083;50.560;7.262;2022-09-14T01:38:30;13.38;;;10.08;;
26484;SDS011;18083;50.560;7.262;2022-09-14T01:40:58;15.78;;;10.08;;
26484;SDS011;18083;50.560;7.262;2022-09-14T01:43:28;12.60;;;9.25;;
26484;SDS011;18083;50.560;7.262;2022-09-14T01:45:56;14.00;;;9.88;;
26484;SDS011;18083;50.560;7.262;2022-09-14T01:48:26;13.22;;;8.70;;
26484;SDS011;18083;50.560;7.262;2022-09-14T01:50:54;13.83;;;10.10;;
26484;SDS011;18083;50.560;7.262;2022-09-14T01:53:27;15.08;;;9.63;;
26484;SDS011;18083;50.560;7.262;2022-09-14T01:55:55;11.97;;;9.18;;
26484;SDS011;18083;50.560;7.262;2022-09-14T02:00:52;16.82;;;11.00;;
26484;SDS011;18083;50.560;7.262;2022-09-14T02:03:24;16.37;;;11.93;;
26484;SDS011;18083;50.560;7.262;2022-09-14T02:08:32;13.03;;;9.75;;
26484;SDS011;18083;50.560;7.262;2022-09-14T02:11:00;18.57;;;11.48;;
26484;SDS011;18083;50.560;7.262;2022-09-14T02:13:28;20.27;;;11.43;;
26484;SDS011;18083;50.560;7.262;2022-09-14T02:15:55;19.20;;;11.95;;
26484;SDS011;18083;50.560;7.262;2022-09-14T02:18:23;17.98;;;12.43;;
26484;SDS011;18083;50.560;7.262;2022-09-14T02:21:25;18.27;;;11.15;;
26484;SDS011;18083;50.560;7.262;2022-09-14T02:23:25;19.95;;;12.37;;
26484;SDS011;18083;50.560;7.262;2022-09-14T02:25:52;21.00;;;13.30;;
26484;SDS011;18083;50.560;7.262;2022-09-14T02:28:20;20.65;;;13.45;;
26484;SDS011;18083;50.560;7.262;2022-09-14T02:30:48;23.40;;;13.48;;
26484;SDS011;18083;50.560;7.262;2022-09-14T02:33:22;21.42;;;12.47;;
26484;SDS011;18083;50.560;7.262;2022-09-14T02:35:49;22.32;;;15.32;;
26484;SDS011;18083;50.560;7.262;2022-09-14T02:40:52;22.02;;;14.20;;
26484;SDS011;18083;50.560;7.262;2022-09-14T02:48:33;20.68;;;13.38;;
26484;SDS011;18083;50.560;7.262;2022-09-14T03:02:43;19.25;;;11.63;;
26484;SDS011;18083;50.560;7.262;2022-09-14T03:05:33;18.90;;;11.97;;
26484;SDS011;18083;50.560;7.262;2022-09-14T03:07:52;16.02;;;11.48;;
26484;SDS011;18083;50.560;7.262;2022-09-14T03:10:21;13.35;;;11.20;;
26484;SDS011;18083;50.560;7.262;2022-09-14T03:12:52;17.87;;;11.20;;
26484;SDS011;18083;50.560;7.262;2022-09-14T03:15:34;15.13;;;10.40;;
26484;SDS011;18083;50.560;7.262;2022-09-14T03:18:00;14.85;;;9.70;;
26484;SDS011;18083;50.560;7.262;2022-09-14T03:20:27;12.28;;;9.80;;
26484;SDS011;18083;50.560;7.262;2022-09-14T03:22:55;12.78;;;9.20;;
26484;SDS011;18083;50.560;7.262;2022-09-14T03:25:26;13.83;;;9.53;;
26484;SDS011;18083;50.560;7.262;2022-09-14T03:27:57;11.90;;;8.88;;
26484;SDS011;18083;50.560;7.262;2022-09-14T03:30:25;11.70;;;8.73;;
26484;SDS011;18083;50.560;7.262;2022-09-14T03:32:53;11.50;;;8.78;;
26484;SDS011;18083;50.560;7.262;2022-09-14T03:35:20;12.70;;;9.10;;
26484;SDS011;18083;50.560;7.262;2022-09-14T03:37:47;15.03;;;10.25;;
26484;SDS011;18083;50.560;7.262;2022-09-14T03:40:17;13.88;;;8.18;;
26484;SDS011;18083;50.560;7.262;2022-09-14T03:42:44;12.98;;;8.73;;
26484;SDS011;18083;50.560;7.262;2022-09-14T03:45:14;9.50;;;7.45;;
26484;SDS011;18083;50.560;7.262;2022-09-14T03:48:03;8.43;;;7.40;;
26484;SDS011;18083;50.560;7.262;2022-09-14T03:50:30;11.15;;;7.60;;
26484;SDS011;18083;50.560;7.262;2022-09-14T03:52:57;10.43;;;7.78;;
26484;SDS011;18083;50.560;7.262;2022-09-14T03:55:25;11.20;;;7.58;;
26484;SDS011;18083;50.560;7.262;2022-09-14T03:57:53;9.03;;;7.45;;
26484;SDS011;18083;50.560;7.262;2022-09-14T04:00:20;9.38;;;7.95;;
26484;SDS011;18083;50.560;7.262;2022-09-14T04:02:48;9.50;;;7.85;;
26484;SDS011;18083;50.560;7.262;2022-09-14T04:05:15;8.63;;;7.30;;
26484;SDS011;18083;50.560;7.262;2022-09-14T04:07:42;8.45;;;7.42;;
26484;SDS011;18083;50.560;7.262;2022-09-14T04:10:10;8.88;;;7.47;;
26484;SDS011;18083;50.560;7.262;2022-09-14T04:12:38;8.70;;;6.67;;
26484;SDS011;18083;50.560;7.262;2022-09-14T04:15:05;9.45;;;6.72;;
26484;SDS011;18083;50.560;7.262;2022-09-14T04:17:33;9.43;;;6.87;;
26484;SDS011;18083;50.560;7.262;2022-09-14T04:20:03;11.20;;;7.95;;
26484;SDS011;18083;50.560;7.262;2022-09-14T04:25:18;9.10;;;7.65;;
26484;SDS011;18083;50.560;7.262;2022-09-14T04:30:23;12.30;;;8.30;;
26484;SDS011;18083;50.560;7.262;2022-09-14T04:32:52;9.13;;;7.78;;
26484;SDS011;18083;50.560;7.262;2022-09-14T04:35:20;8.98;;;6.85;;
26484;SDS011;18083;50.560;7.262;2022-09-14T04:37:52;9.98;;;7.65;;
26484;SDS011;18083;50.560;7.262;2022-09-14T04:40:22;8.28;;;6.75;;
26484;SDS011;18083;50.560;7.262;2022-09-14T04:42:55;10.95;;;7.22;;
26484;SDS011;18083;50.560;7.262;2022-09-14T04:45:20;8.60;;;7.58;;
26484;SDS011;18083;50.560;7.262;2022-09-14T04:47:50;10.35;;;8.25;;
26484;SDS011;18083;50.560;7.262;2022-09-14T04:50:16;11.12;;;7.05;;
26484;SDS011;18083;50.560;7.262;2022-09-14T04:52:43;8.90;;;6.97;;
26484;SDS011;18083;50.560;7.262;2022-09-14T04:55:10;10.63;;;7.60;;
26484;SDS011;18083;50.560;7.262;2022-09-14T04:57:38;10.03;;;7.97;;
26484;SDS011;18083;50.560;7.262;2022-09-14T05:00:05;10.25;;;8.40;;
26484;SDS011;18083;50.560;7.262;2022-09-14T05:02:33;10.40;;;7.62;;
26484;SDS011;18083;50.560;7.262;2022-09-14T05:05:00;8.80;;;7.62;;
26484;SDS011;18083;50.560;7.262;2022-09-14T05:07:27;10.48;;;7.97;;
26484;SDS011;18083;50.560;7.262;2022-09-14T05:09:55;12.37;;;8.80;;
26484;SDS011;18083;50.560;7.262;2022-09-14T05:12:22;9.73;;;7.83;;
26484;SDS011;18083;50.560;7.262;2022-09-14T05:14:49;9.48;;;7.08;;
26484;SDS011;18083;50.560;7.262;2022-09-14T05:17:17;11.15;;;9.73;;
26484;SDS011;18083;50.560;7.262;2022-09-14T05:19:44;10.72;;;7.87;;
26484;SDS011;18083;50.560;7.262;2022-09-14T05:22:11;12.43;;;8.58;;
26484;SDS011;18083;50.560;7.262;2022-09-14T05:24:40;12.88;;;8.45;;
26484;SDS011;18083;50.560;7.262;2022-09-14T05:27:08;11.12;;;8.93;;
26484;SDS011;18083;50.560;7.262;2022-09-14T05:29:35;13.25;;;8.63;;
26484;SDS011;18083;50.560;7.262;2022-09-14T05:32:04;15.13;;;9.30;;
26484;SDS011;18083;50.560;7.262;2022-09-14T05:34:32;12.40;;;9.03;;
26484;SDS011;18083;50.560;7.262;2022-09-14T05:36:59;13.88;;;9.13;;
26484;SDS011;18083;50.560;7.262;2022-09-14T05:39:26;14.95;;;8.65;;
26484;SDS011;18083;50.560;7.262;2022-09-14T05:41:54;11.90;;;8.53;;
26484;SDS011;18083;50.560;7.262;2022-09-14T05:44:21;13.20;;;8.43;;
26484;SDS011;18083;50.560;7.262;2022-09-14T05:46:49;7.97;;;7.17;;
26484;SDS011;18083;50.560;7.262;2022-09-14T05:49:16;9.38;;;7.60;;
26484;SDS011;18083;50.560;7.262;2022-09-14T05:51:44;8.65;;;7.03;;
26484;SDS011;18083;50.560;7.262;2022-09-14T05:54:11;8.30;;;6.50;;
26484;SDS011;18083;50.560;7.262;2022-09-14T05:56:38;7.58;;;6.78;;
26484;SDS011;18083;50.560;7.262;2022-09-14T05:59:06;8.13;;;7.33;;
26484;SDS011;18083;50.560;7.262;2022-09-14T06:01:33;10.32;;;6.97;;
26484;SDS011;18083;50.560;7.262;2022-09-14T06:04:00;7.62;;;6.10;;
26484;SDS011;18083;50.560;7.262;2022-09-14T06:06:28;9.50;;;7.03;;
26484;SDS011;18083;50.560;7.262;2022-09-14T06:08:56;7.95;;;6.70;;
26484;SDS011;18083;50.560;7.262;2022-09-14T06:11:25;7.78;;;6.65;;
26484;SDS011;18083;50.560;7.262;2022-09-14T06:13:54;9.58;;;7.85;;
26484;SDS011;18083;50.560;7.262;2022-09-14T06:16:22;7.53;;;6.30;;
26484;SDS011;18083;50.560;7.262;2022-09-14T06:18:49;8.55;;;6.47;;
26484;SDS011;18083;50.560;7.262;2022-09-14T06:21:18;6.35;;;5.75;;
26484;SDS011;18083;50.560;7.262;2022-09-14T06:23:45;8.23;;;6.45;;
26484;SDS011;18083;50.560;7.262;2022-09-14T06:26:13;7.05;;;5.28;;
26484;SDS011;18083;50.560;7.262;2022-09-14T06:28:41;8.03;;;5.58;;
26484;SDS011;18083;50.560;7.262;2022-09-14T06:31:10;7.15;;;4.87;;
26484;SDS011;18083;50.560;7.262;2022-09-14T06:33:41;8.53;;;4.95;;
26484;SDS011;18083;50.560;7.262;2022-09-14T06:36:07;4.83;;;4.40;;
26484;SDS011;18083;50.560;7.262;2022-09-14T06:38:35;4.97;;;4.58;;
26484;SDS011;18083;50.560;7.262;2022-09-14T06:41:03;4.90;;;4.45;;
26484;SDS011;18083;50.560;7.262;2022-09-14T06:43:31;4.47;;;4.08;;
26484;SDS011;18083;50.560;7.262;2022-09-14T06:46:02;6.17;;;4.70;;
26484;SDS011;18083;50.560;7.262;2022-09-14T06:48:31;4.15;;;3.35;;
26484;SDS011;18083;50.560;7.262;2022-09-14T06:50:59;4.33;;;3.92;;
26484;SDS011;18083;50.560;7.262;2022-09-14T06:53:26;5.05;;;3.42;;
26484;SDS011;18083;50.560;7.262;2022-09-14T06:55:56;3.60;;;2.60;;
26484;SDS011;18083;50.560;7.262;2022-09-14T06:58:22;3.25;;;2.83;;
26484;SDS011;18083;50.560;7.262;2022-09-14T07:00:50;6.78;;;3.30;;
26484;SDS011;18083;50.560;7.262;2022-09-14T07:03:17;2.95;;;2.27;;
26484;SDS011;18083;50.560;7.262;2022-09-14T07:05:44;3.20;;;2.75;;
26484;SDS011;18083;50.560;7.262;2022-09-14T07:08:12;3.27;;;2.98;;
26484;SDS011;18083;50.560;7.262;2022-09-14T07:10:39;5.22;;;3.35;;
26484;SDS011;18083;50.560;7.262;2022-09-14T07:13:08;4.83;;;3.52;;
26484;SDS011;18083;50.560;7.262;2022-09-14T07:15:35;4.10;;;3.70;;
26484;SDS011;18083;50.560;7.262;2022-09-14T07:18:03;4.30;;;3.47;;
26484;SDS011;18083;50.560;7.262;2022-09-14T07:20:30;5.47;;;4.28;;
26484;SDS011;18083;50.560;7.262;2022-09-14T07:22:59;5.50;;;4.92;;
26484;SDS011;18083;50.560;7.262;2022-09-14T07:25:27;5.83;;;4.42;;
26484;SDS011;18083;50.560;7.262;2022-09-14T07:27:54;7.55;;;5.20;;
26484;SDS011;18083;50.560;7.262;2022-09-14T07:30:21;7.75;;;6.00;;
26484;SDS011;18083;50.560;7.262;2022-09-14T07:32:50;7.33;;;5.10;;
26484;SDS011;18083;50.560;7.262;2022-09-14T07:35:18;10.68;;;6.22;;
26484;SDS011;18083;50.560;7.262;2022-09-14T07:37:45;7.15;;;5.45;;
26484;SDS011;18083;50.560;7.262;2022-09-14T07:40:12;7.03;;;6.30;;
26484;SDS011;18083;50.560;7.262;2022-09-14T07:42:40;6.87;;;5.40;;
26484;SDS011;18083;50.560;7.262;2022-09-14T07:45:07;4.92;;;4.30;;
26484;SDS011;18083;50.560;7.262;2022-09-14T07:47:35;4.85;;;4.35;;
26484;SDS011;18083;50.560;7.262;2022-09-14T07:50:02;6.17;;;4.53;;
26484;SDS011;18083;50.560;7.262;2022-09-14T07:52:30;8.08;;;4.45;;
26484;SDS011;18083;50.560;7.262;2022-09-14T07:54:57;5.83;;;4.33;;
26484;SDS011;18083;50.560;7.262;2022-09-14T07:57:24;6.12;;;3.98;;
26484;SDS011;18083;50.560;7.262;2022-09-14T07:59:52;7.50;;;3.20;;
26484;SDS011;18083;50.560;7.262;2022-09-14T08:02:20;4.12;;;3.65;;
26484;SDS011;18083;50.560;7.262;2022-09-14T08:04:48;4.40;;;4.00;;
26484;SDS011;18083;50.560;7.262;2022-09-14T08:07:17;5.75;;;3.58;;
26484;SDS011;18083;50.560;7.262;2022-09-14T08:09:45;6.70;;;3.98;;
26484;SDS011;18083;50.560;7.262;2022-09-14T08:12:12;4.90;;;4.00;;
26484;SDS011;18083;50.560;7.262;2022-09-14T08:14:41;7.45;;;3.83;;
26484;SDS011;18083;50.560;7.262;2022-09-14T08:17:08;4.50;;;3.60;;
26484;SDS011;18083;50.560;7.262;2022-09-14T08:19:36;4.33;;;3.55;;
26484;SDS011;18083;50.560;7.262;2022-09-14T08:22:03;3.60;;;3.30;;
26484;SDS011;18083;50.560;7.262;2022-09-14T08:24:31;5.40;;;3.75;;
26484;SDS011;18083;50.560;7.262;2022-09-14T08:26:58;5.83;;;3.92;;
26484;SDS011;18083;50.560;7.262;2022-09-14T08:29:26;3.92;;;3.42;;
26484;SDS011;18083;50.560;7.262;2022-09-14T08:31:53;3.98;;;3.58;;
26484;SDS011;18083;50.560;7.262;2022-09-14T08:34:20;3.33;;;3.02;;
26484;SDS011;18083;50.560;7.262;2022-09-14T08:36:48;3.92;;;3.42;;
26484;SDS011;18083;50.560;7.262;2022-09-14T08:39:15;8.95;;;4.28;;
26484;SDS011;18083;50.560;7.262;2022-09-14T08:46:53;5.53;;;3.85;;
26484;SDS011;18083;50.560;7.262;2022-09-14T08:51:50;3.40;;;2.90;;
26484;SDS011;18083;50.560;7.262;2022-09-14T08:54:17;4.92;;;3.70;;
26484;SDS011;18083;50.560;7.262;2022-09-14T08:56:46;3.85;;;3.10;;
26484;SDS011;18083;50.560;7.262;2022-09-14T08:59:22;3.20;;;2.37;;
26484;SDS011;18083;50.560;7.262;2022-09-14T09:01:47;3.62;;;2.52;;
26484;SDS011;18083;50.560;7.262;2022-09-14T09:04:18;2.50;;;2.20;;
26484;SDS011;18083;50.560;7.262;2022-09-14T09:09:32;4.65;;;2.65;;
26484;SDS011;18083;50.560;7.262;2022-09-14T09:11:57;2.42;;;2.10;;
26484;SDS011;18083;50.560;7.262;2022-09-14T09:14:32;3.83;;;2.35;;
26484;SDS011;18083;50.560;7.262;2022-09-14T09:17:02;2.77;;;2.20;;
26484;SDS011;18083;50.560;7.262;2022-09-14T09:19:30;3.17;;;2.47;;
26484;SDS011;18083;50.560;7.262;2022-09-14T09:21:58;2.52;;;1.98;;
26484;SDS011;18083;50.560;7.262;2022-09-14T09:24:36;6.25;;;2.52;;
26484;SDS011;18083;50.560;7.262;2022-09-14T09:26:55;3.40;;;2.75;;
26484;SDS011;18083;50.560;7.262;2022-09-14T09:29:22;3.20;;;2.60;;
26484;SDS011;18083;50.560;7.262;2022-09-14T09:31:54;2.70;;;2.47;;
26484;SDS011;18083;50.560;7.262;2022-09-14T09:34:26;4.90;;;2.60;;
26484;SDS011;18083;50.560;7.262;2022-09-14T09:36:54;2.33;;;2.12;;
26484;SDS011;18083;50.560;7.262;2022-09-14T09:39:22;3.00;;;2.65;;
26484;SDS011;18083;50.560;7.262;2022-09-14T09:41:55;4.12;;;2.27;;
26484;SDS011;18083;50.560;7.262;2022-09-14T09:44:22;4.75;;;2.08;;
26484;SDS011;18083;50.560;7.262;2022-09-14T09:46:50;3.02;;;1.80;;
26484;SDS011;18083;50.560;7.262;2022-09-14T09:51:48;3.98;;;2.92;;
26484;SDS011;18083;50.560;7.262;2022-09-14T09:56:52;2.17;;;1.95;;
26484;SDS011;18083;50.560;7.262;2022-09-14T10:01:50;4.67;;;2.95;;
26484;SDS011;18083;50.560;7.262;2022-09-14T10:04:26;3.22;;;2.45;;
26484;SDS011;18083;50.560;7.262;2022-09-14T10:06:54;2.70;;;2.30;;
26484;SDS011;18083;50.560;7.262;2022-09-14T10:09:24;2.80;;;2.42;;
26484;SDS011;18083;50.560;7.262;2022-09-14T10:11:59;3.00;;;2.42;;
26484;SDS011;18083;50.560;7.262;2022-09-14T10:14:31;2.60;;;1.92;;
26484;SDS011;18083;50.560;7.262;2022-09-14T10:19:48;2.17;;;1.95;;
26484;SDS011;18083;50.560;7.262;2022-09-14T10:22:19;4.83;;;2.47;;
26484;SDS011;18083;50.560;7.262;2022-09-14T10:24:57;3.25;;;2.25;;
26484;SDS011;18083;50.560;7.262;2022-09-14T10:27:31;3.52;;;2.67;;
26484;SDS011;18083;50.560;7.262;2022-09-14T10:29:59;2.75;;;2.37;;
26484;SDS011;18083;50.560;7.262;2022-09-14T10:32:28;6.42;;;2.45;;
26484;SDS011;18083;50.560;7.262;2022-09-14T10:34:56;4.42;;;2.42;;
26484;SDS011;18083;50.560;7.262;2022-09-14T10:37:33;2.08;;;1.98;;
26484;SDS011;18083;50.560;7.262;2022-09-14T10:40:15;3.70;;;2.70;;
26484;SDS011;18083;50.560;7.262;2022-09-14T10:45:33;2.77;;;2.33;;
26484;SDS011;18083;50.560;7.262;2022-09-14T10:48:04;6.17;;;2.55;;
26484;SDS011;18083;50.560;7.262;2022-09-14T10:50:37;5.95;;;2.65;;
26484;SDS011;18083;50.560;7.262;2022-09-14T10:58:34;3.60;;;3.30;;
26484;SDS011;18083;50.560;7.262;2022-09-14T11:01:02;5.37;;;3.27;;
26484;SDS011;18083;50.560;7.262;2022-09-14T11:03:50;4.00;;;3.15;;
26484;SDS011;18083;50.560;7.262;2022-09-14T11:08:43;5.28;;;3.42;;
26484;SDS011;18083;50.560;7.262;2022-09-14T11:13:53;7.50;;;3.52;;
26484;SDS011;18083;50.560;7.262;2022-09-14T11:21:29;5.92;;;3.70;;
26484;SDS011;18083;50.560;7.262;2022-09-14T11:26:39;4.47;;;4.08;;
26484;SDS011;18083;50.560;7.262;2022-09-14T11:31:51;4.58;;;3.33;;
26484;SDS011;18083;50.560;7.262;2022-09-14T11:34:29;4.65;;;4.17;;
26484;SDS011;18083;50.560;7.262;2022-09-14T11:37:15;5.00;;;4.10;;
26484;SDS011;18083;50.560;7.262;2022-09-14T11:39:28;6.22;;;4.17;;
26484;SDS011;18083;50.560;7.262;2022-09-14T11:42:11;4.97;;;4.30;;
26484;SDS011;18083;50.560;7.262;2022-09-14T11:44:41;3.72;;;3.42;;
26484;SDS011;18083;50.560;7.262;2022-09-14T11:52:31;5.80;;;3.87;;
26484;SDS011;18083;50.560;7.262;2022-09-14T11:55:01;5.30;;;4.80;;
26484;SDS011;18083;50.560;7.262;2022-09-14T11:57:29;5.12;;;4.60;;
26484;SDS011;18083;50.560;7.262;2022-09-14T11:59:58;5.50;;;4.35;;
26484;SDS011;18083;50.560;7.262;2022-09-14T12:10:26;4.28;;;3.72;;
26484;SDS011;18083;50.560;7.262;2022-09-14T12:12:43;4.60;;;4.10;;
26484;SDS011;18083;50.560;7.262;2022-09-14T12:17:44;5.70;;;4.47;;
26484;SDS011;18083;50.560;7.262;2022-09-14T12:22:49;4.37;;;3.62;;
26484;SDS011;18083;50.560;7.262;2022-09-14T12:25:17;5.25;;;3.75;;
26484;SDS011;18083;50.560;7.262;2022-09-14T12:27:46;3.15;;;2.85;;
26484;SDS011;18083;50.560;7.262;2022-09-14T12:33:01;4.97;;;3.60;;
26484;SDS011;18083;50.560;7.262;2022-09-14T12:40:49;3.40;;;1.90;;
26484;SDS011;18083;50.560;7.262;2022-09-14T12:46:04;2.35;;;2.08;;
26484;SDS011;18083;50.560;7.262;2022-09-14T12:51:27;2.45;;;2.25;;
26484;SDS011;18083;50.560;7.262;2022-09-14T12:56:31;3.45;;;2.92;;
26484;SDS011;18083;50.560;7.262;2022-09-14T13:04:28;6.78;;;6.17;;
26484;SDS011;18083;50.560;7.262;2022-09-14T13:06:56;8.93;;;8.05;;
26484;SDS011;18083;50.560;7.262;2022-09-14T13:09:25;9.15;;;8.30;;
26484;SDS011;18083;50.560;7.262;2022-09-14T13:11:58;9.60;;;8.60;;
26484;SDS011;18083;50.560;7.262;2022-09-14T13:14:23;10.30;;;9.13;;
26484;SDS011;18083;50.560;7.262;2022-09-14T13:16:51;11.43;;;9.50;;
26484;SDS011;18083;50.560;7.262;2022-09-14T13:19:29;10.68;;;9.65;;
26484;SDS011;18083;50.560;7.262;2022-09-14T13:21:57;12.47;;;9.80;;
26484;SDS011;18083;50.560;7.262;2022-09-14T13:26:55;13.03;;;10.45;;
26484;SDS011;18083;50.560;7.262;2022-09-14T13:29:23;10.00;;;8.30;;
26484;SDS011;18083;50.560;7.262;2022-09-14T13:31:52;8.40;;;7.67;;
26484;SDS011;18083;50.560;7.262;2022-09-14T13:34:20;9.10;;;8.20;;
26484;SDS011;18083;50.560;7.262;2022-09-14T13:36:48;10.48;;;9.45;;
26484;SDS011;18083;50.560;7.262;2022-09-14T13:39:26;9.83;;;8.83;;
26484;SDS011;18083;50.560;7.262;2022-09-14T13:41:54;13.62;;;11.45;;
26484;SDS011;18083;50.560;7.262;2022-09-14T13:44:22;11.63;;;10.43;;
26484;SDS011;18083;50.560;7.262;2022-09-14T13:46:51;12.35;;;10.95;;
26484;SDS011;18083;50.560;7.262;2022-09-14T13:49:18;12.90;;;11.50;;
26484;SDS011;18083;50.560;7.262;2022-09-14T13:51:46;17.30;;;13.40;;
26484;SDS011;18083;50.560;7.262;2022-09-14T13:56:45;15.75;;;14.10;;
26484;SDS011;18083;50.560;7.262;2022-09-14T13:59:14;16.02;;;13.68;;
26484;SDS011;18083;50.560;7.262;2022-09-14T14:01:45;16.55;;;14.85;;
26484;SDS011;18083;50.560;7.262;2022-09-14T14:04:27;16.82;;;14.63;;
26484;SDS011;18083;50.560;7.262;2022-09-14T14:09:37;17.85;;;16.00;;
26484;SDS011;18083;50.560;7.262;2022-09-14T14:12:05;19.50;;;16.35;;
26484;SDS011;18083;50.560;7.262;2022-09-14T14:14:32;19.75;;;15.65;;
26484;SDS011;18083;50.560;7.262;2022-09-14T14:19:40;18.62;;;15.93;;
26484;SDS011;18083;50.560;7.262;2022-09-14T14:24:44;24.27;;;17.65;;
26484;SDS011;18083;50.560;7.262;2022-09-14T14:27:24;22.55;;;17.82;;
26484;SDS011;18083;50.560;7.262;2022-09-14T14:29:46;20.97;;;16.70;;
26484;SDS011;18083;50.560;7.262;2022-09-14T14:32:13;19.80;;;16.62;;
26484;SDS011;18083;50.560;7.262;2022-09-14T14:34:41;21.60;;;17.60;;
26484;SDS011;18083;50.560;7.262;2022-09-14T14:37:09;20.40;;;16.82;;
26484;SDS011;18083;50.560;7.262;2022-09-14T14:39:36;25.15;;;19.67;;
26484;SDS011;18083;50.560;7.262;2022-09-14T14:42:04;21.55;;;17.77;;
26484;SDS011;18083;50.560;7.262;2022-09-14T14:44:32;22.15;;;19.15;;
26484;SDS011;18083;50.560;7.262;2022-09-14T14:47:00;23.22;;;19.50;;
26484;SDS011;18083;50.560;7.262;2022-09-14T14:49:27;27.00;;;20.45;;
26484;SDS011;18083;50.560;7.262;2022-09-14T14:51:55;27.55;;;19.73;;
26484;SDS011;18083;50.560;7.262;2022-09-14T14:54:22;29.80;;;21.95;;
26484;SDS011;18083;50.560;7.262;2022-09-14T14:56:50;27.52;;;20.05;;
26484;SDS011;18083;50.560;7.262;2022-09-14T15:01:49;29.90;;;21.00;;
26484;SDS011;18083;50.560;7.262;2022-09-14T15:04:18;30.95;;;21.12;;
26484;SDS011;18083;50.560;7.262;2022-09-14T15:06:45;30.97;;;22.67;;
26484;SDS011;18083;50.560;7.262;2022-09-14T15:09:14;29.30;;;21.37;;
26484;SDS011;18083;50.560;7.262;2022-09-14T15:11:42;34.40;;;22.00;;
26484;SDS011;18083;50.560;7.262;2022-09-14T15:14:12;32.28;;;23.05;;
26484;SDS011;18083;50.560;7.262;2022-09-14T15:16:40;34.08;;;21.93;;
26484;SDS011;18083;50.560;7.262;2022-09-14T15:19:08;31.00;;;20.10;;
26484;SDS011;18083;50.560;7.262;2022-09-14T15:21:36;29.37;;;21.27;;
26484;SDS011;18083;50.560;7.262;2022-09-14T15:24:04;32.42;;;20.20;;
26484;SDS011;18083;50.560;7.262;2022-09-14T15:26:32;31.45;;;19.65;;
26484;SDS011;18083;50.560;7.262;2022-09-14T15:29:00;31.12;;;20.27;;
26484;SDS011;18083;50.560;7.262;2022-09-14T15:31:28;28.20;;;20.48;;
26484;SDS011;18083;50.560;7.262;2022-09-14T15:33:55;22.17;;;16.75;;
26484;SDS011;18083;50.560;7.262;2022-09-14T15:36:34;26.55;;;16.45;;
26484;SDS011;18083;50.560;7.262;2022-09-14T15:39:02;26.17;;;17.00;;
26484;SDS011;18083;50.560;7.262;2022-09-14T15:41:30;27.87;;;18.52;;
26484;SDS011;18083;50.560;7.262;2022-09-14T15:43:57;27.98;;;19.77;;
26484;SDS011;18083;50.560;7.262;2022-09-14T15:46:25;26.80;;;18.25;;
26484;SDS011;18083;50.560;7.262;2022-09-14T15:48:52;26.82;;;16.62;;
26484;SDS011;18083;50.560;7.262;2022-09-14T15:51:19;22.05;;;14.47;;
26484;SDS011;18083;50.560;7.262;2022-09-14T15:53:47;21.20;;;15.03;;
26484;SDS011;18083;50.560;7.262;2022-09-14T15:56:15;19.80;;;14.45;;
26484;SDS011;18083;50.560;7.262;2022-09-14T15:58:42;18.50;;;13.75;;
26484;SDS011;18083;50.560;7.262;2022-09-14T16:01:10;16.93;;;12.43;;
26484;SDS011;18083;50.560;7.262;2022-09-14T16:03:38;11.50;;;10.03;;
26484;SDS011;18083;50.560;7.262;2022-09-14T16:06:12;10.78;;;9.60;;
26484;SDS011;18083;50.560;7.262;2022-09-14T16:08:36;11.20;;;10.00;;
26484;SDS011;18083;50.560;7.262;2022-09-14T16:11:04;10.80;;;9.73;;
26484;SDS011;18083;50.560;7.262;2022-09-14T16:13:32;11.83;;;10.60;;
26484;SDS011;18083;50.560;7.262;2022-09-14T16:16:09;11.40;;;9.85;;
26484;SDS011;18083;50.560;7.262;2022-09-14T16:18:37;12.95;;;10.70;;
26484;SDS011;18083;50.560;7.262;2022-09-14T16:21:05;10.28;;;9.18;;
26484;SDS011;18083;50.560;7.262;2022-09-14T16:23:34;10.13;;;8.90;;
26484;SDS011;18083;50.560;7.262;2022-09-14T16:26:07;11.33;;;10.23;;
26484;SDS011;18083;50.560;7.262;2022-09-14T16:28:30;11.38;;;10.13;;
26484;SDS011;18083;50.560;7.262;2022-09-14T16:31:08;12.73;;;10.60;;
26484;SDS011;18083;50.560;7.262;2022-09-14T16:33:39;13.18;;;10.90;;
26484;SDS011;18083;50.560;7.262;2022-09-14T16:36:07;13.58;;;11.65;;
26484;SDS011;18083;50.560;7.262;2022-09-14T16:38:35;13.72;;;11.22;;
26484;SDS011;18083;50.560;7.262;2022-09-14T16:41:03;14.38;;;12.20;;
26484;SDS011;18083;50.560;7.262;2022-09-14T16:43:31;13.08;;;11.35;;
26484;SDS011;18083;50.560;7.262;2022-09-14T16:45:59;13.30;;;11.90;;
26484;SDS011;18083;50.560;7.262;2022-09-14T16:48:27;14.03;;;11.60;;
26484;SDS011;18083;50.560;7.262;2022-09-14T16:50:55;15.55;;;12.40;;
26484;SDS011;18083;50.560;7.262;2022-09-14T16:53:22;12.37;;;10.58;;
26484;SDS011;18083;50.560;7.262;2022-09-14T16:55:50;13.55;;;9.70;;
26484;SDS011;18083;50.560;7.262;2022-09-14T16:58:17;11.28;;;8.65;;
26484;SDS011;18083;50.560;7.262;2022-09-14T17:00:45;12.50;;;8.53;;
26484;SDS011;18083;50.560;7.262;2022-09-14T17:03:12;12.23;;;8.80;;
26484;SDS011;18083;50.560;7.262;2022-09-14T17:05:40;11.57;;;9.48;;
26484;SDS011;18083;50.560;7.262;2022-09-14T17:08:07;9.78;;;8.78;;
26484;SDS011;18083;50.560;7.262;2022-09-14T17:10:35;13.68;;;9.30;;
26484;SDS011;18083;50.560;7.262;2022-09-14T17:13:02;10.40;;;9.28;;
26484;SDS011;18083;50.560;7.262;2022-09-14T17:15:29;13.78;;;9.45;;
26484;SDS011;18083;50.560;7.262;2022-09-14T17:17:57;11.73;;;9.58;;
26484;SDS011;18083;50.560;7.262;2022-09-14T17:20:24;12.13;;;10.38;;
26484;SDS011;18083;50.560;7.262;2022-09-14T17:22:51;10.72;;;9.50;;